Boris Petrov

Recruteur - Ludogorets
20 Févr 2028
Dimanche
Processus

Personnalité

Adaptabilité (13) Ambition (8) Controverse (16) Loyauté (4) Pression (13) Professionnalisme (7) Sportivité (15) Tempérament (19)

Profil

Style d'entraînement Démocratique
Diplôme Continental C
Détermination 9
Gestion des joueurs 6
Motivation 12
Discipline 9
Satisfaction professionnelle
100%
Fatigue
0%
Rôle Recruteur
Salaire 96.2K p/s
Contrat 14.03.2030

Performance

Comportement Bon
Efficacité de l'entraînement
41%
Développement des joueurs
55%
Prévention des blessures
30%
Mise en place tactique
40%

Événements récents

A participé à une réunion de recrutement maintenant
A recommandé une cible de transfert maintenant
A participé à une réunion de recrutement 7j
A recommandé une cible de transfert 7j
A participé à une réunion de recrutement 7j
A recommandé une cible de transfert 7j
A participé à une réunion de recrutement 14j
A recommandé une cible de transfert 14j

Suivi en cours

118
Joueur Club Statut Capacité Confiance Observé Dernière observation Dernier vote
Karl Fabien Levski Rapport prêt 119 / 121 79% 1 24.01.2028 -
Nikola Iliev Botev Plovdiv Perdu 115 / 120 79% 1 17.01.2028 -
Asen Mitkov Levski Perdu 109 / 119 79% 1 02.01.2028 Approuver
Danil Glebov Dinamo Moscow Actif 138 / 126 40% 2 31.12.2027 -
Nazareno Colombo Racing Club Actif 126 / 115 40% 1 31.12.2027 -
Victor Kristiansen Leicester City Actif 138 / 131 40% 1 31.12.2027 -
Alessio Zerbin Frosinone Actif 140 / 128 40% 1 10.08.2027 -
Jurgen Ekkelenkamp Udinese Actif 136 / 122 40% 1 10.08.2027 -
Isaac Price West Bromwich Albion Actif 130 / 144 40% 1 02.08.2027 -
Morgan Whittaker Middlesbrough Actif 140 / 136 40% 1 02.08.2027 -
Bertrand Traoré Sunderland Actif 142 / 150 40% 1 02.08.2027 -
Rocco Vata Watford Actif 134 / 112 40% 2 27.07.2027 -
Lorent Tolaj Plymouth Argyle Actif 134 / 139 40% 1 27.07.2027 -
Kelly Saravanan Salford City Actif 105 / 109 40% 1 27.07.2027 -
Sam Bell Bristol City Actif 131 / 118 40% 3 26.07.2027 -
Harry Leonard Peterborough United Actif 112 / 102 40% 3 26.07.2027 -
Iwan Morgan Grimsby Town Actif 110 / 117 40% 1 26.07.2027 -
Dom Ballard Leyton Orient Actif 122 / 128 40% 1 08.07.2027 -
Moussa Dembélé CR Belouizdad Actif 138 / 138 40% 1 02.07.2027 -
Hwang Hee-Chan Wolverhampton Actif 128 / 135 40% 1 21.06.2027 -
Nathan Broadhead Wrexham Actif 135 / 134 40% 1 21.06.2027 -
Ilias Chair Queens Park Rangers Actif 137 / 133 40% 1 21.06.2027 -
Mazire Soula Levski Actif 114 / 130 76% 1 14.06.2027 Approuver
Lewis O'Brien Wrexham Actif 129 / 128 40% 1 14.06.2027 -
Leif Davis Ipswich Town Actif 145 / 146 40% 1 14.06.2027 -
Léo Pereira CSKA Sofia Actif 115 / 120 76% 1 02.06.2027 Approuver
David Romero Parma Actif 117 / 137 40% 3 29.05.2027 -
Jovon Makama Norwich City Actif 129 / 133 40% 1 29.05.2027 -
Richard Koné Queens Park Rangers Actif 123 / 114 40% 1 28.05.2027 -
Keagan Tau Ajax Cape Town Actif 91 / 99 40% 3 27.05.2027 -
Christ Inao Oulaï Fiorentina Actif 132 / 135 40% 5 27.05.2027 -
Leonardo Mendicino Bari Actif 114 / 124 40% 1 27.05.2027 -
Matvey Kislyak CSKA Moscow Actif 131 / 133 40% 3 26.05.2027 -
Riley Owen Trento Actif 103 / 93 40% 1 26.05.2027 -
Shea Charles Southampton Actif 132 / 152 40% 1 25.05.2027 -
Ethan Galbraith Swansea City Actif 138 / 126 40% 1 25.05.2027 -
Florentino Luís Ipswich Town Actif 147 / 152 40% 2 24.05.2027 -
Habib Diarra Sunderland Actif 145 / 144 40% 3 24.05.2027 -
Brian De Keersmaecker Oxford United Actif 127 / 126 40% 1 24.05.2027 -
Daniel Costa Sporting CP Actif 84 / 93 40% 3 23.05.2027 -
Zane Albarus Cambridge United Actif 93 / 91 40% 1 23.05.2027 -
Zaïd BafdilI Sporting CP Actif 97 / 85 40% 2 21.05.2027 -
Aidomo Emakhu Oxford United Actif 115 / 139 40% 1 21.05.2027 -
Jacopo Desogus AlbinoLeffe Actif 109 / 105 40% 1 21.05.2027 -
Harry Clarke Preston Actif 132 / 141 40% 1 17.05.2027 -
Manfred Ugalde Spartak Moscow Actif 131 / 137 40% 2 16.05.2027 -
August Priske Birmingham Actif 131 / 121 40% 1 16.05.2027 -
José Martínes CSKA 1948 Actif 109 / 114 40% 5 15.05.2027 -
Francesco Petito Dolomiti Bellunesi Actif 104 / 105 40% 1 15.05.2027 -
Talles Magno Wolverhampton Actif 135 / 117 40% 1 14.05.2027 -
Vivaldo Semedo Watford Actif 118 / 124 40% 1 14.05.2027 -
Tyreece Campbell Charlton Athletic Actif 115 / 111 40% 1 13.05.2027 -
Álex Centelles Levski Actif 133 / 126 40% 2 12.05.2027 Plus d'infos
Tiago Freitas Benfica Actif 107 / 110 40% 3 12.05.2027 -
Caleb Yirenkyi Coventry City Actif 143 / 132 40% 1 12.05.2027 -
Nicolas Madsen Queens Park Rangers Actif 136 / 118 40% 1 12.05.2027 -
Pelle Mattsson Norwich City Actif 118 / 111 40% 1 12.05.2027 -
Juan Giménez Celta Actif 115 / 129 40% 1 09.05.2027 -
Dylan Lawlor Cardiff City Actif 119 / 115 40% 1 08.05.2027 -
Aidan Morris Middlesbrough Actif 136 / 127 40% 1 07.05.2027 -
Luke McNally Bristol City Actif 126 / 117 40% 1 07.05.2027 -
Derry Murkin Derby County Actif 131 / 124 40% 1 06.05.2027 -
Sascha Britschgi Padova Actif 120 / 127 40% 3 05.05.2027 -
Job Ochieng Real Sociedad Actif 115 / 122 40% 3 04.05.2027 -
Stiven Shpendi Empoli Actif 116 / 131 40% 2 04.05.2027 -
Ben Ahmed Kohili Paradou Actif 106 / 112 40% 2 03.05.2027 -
Younes Ebnoutalib Eintracht Frankfurt Actif 127 / 124 40% 1 03.05.2027 -
Alessandro Sersanti Modena Actif 124 / 132 40% 2 01.05.2027 -
Nicolò Savona Nottingham Forest Actif 141 / 157 40% 1 01.05.2027 -
Eduardo Felicíssimo Sporting CP Actif 113 / 109 40% 1 30.04.2027 -
Ilja Vakhania Krasnodar Actif 123 / 117 40% 1 27.04.2027 -
Leandro Martins Benfica Actif 98 / 83 40% 2 25.04.2027 -
Georgi Lazarov Cherno More Actif 96 / 95 40% 1 25.04.2027 -
Martim Cunha Porto Actif 95 / 119 40% 1 25.04.2027 -
Karim Coulibaly RC Strasbourg Actif 120 / 122 40% 3 24.04.2027 -
Williams Manyama SuperSport United Actif 108 / 111 40% 2 22.04.2027 -
Matteo Lovato Padova Actif 125 / 124 40% 1 22.04.2027 -
Christian Krasnodar Actif 134 / 133 40% 3 16.04.2027 -
Aleksa Terzić Frosinone Actif 125 / 112 40% 1 16.04.2027 -
Jay Idzes Sassuolo Actif 130 / 143 40% 1 14.04.2027 -
Daniel Tonoli Modena Actif 129 / 121 40% 1 14.04.2027 -
Marco Sala Avellino Actif 111 / 101 40% 1 14.04.2027 -
Simone Canestrelli Pisa Actif 139 / 138 40% 1 13.04.2027 -
Kian Fitz-Jim Torino Actif 132 / 121 40% 2 11.04.2027 -
Gianluca Busio Venezia Actif 128 / 140 40% 1 11.04.2027 -
Jorge Meireles AVS Actif 110 / 129 40% 1 10.04.2027 -
Ekain Orobengoa Real Sociedad Actif 104 / 117 40% 1 10.04.2027 -
Ilario Monterisi Frosinone Actif 134 / 125 40% 2 06.04.2027 -
Yaroslav Gladyshev Dinamo Moscow Actif 127 / 131 40% 2 03.04.2027 -
Luke Baartman ES Mostaganem Actif 104 / 111 40% 1 03.04.2027 -
Romano Floriani Mussolini Avellino Actif 122 / 111 40% 1 02.04.2027 -
Ronwen Phiri Platinum Stars Actif 95 / 94 40% 1 02.04.2027 -
Tobias Slotsager Casertana Actif 108 / 101 40% 1 02.04.2027 -
Adrián Bernabé Parma Actif 132 / 149 40% 1 31.03.2027 -
Rubens Dinamo Moscow Actif 130 / 121 40% 1 31.03.2027 -
Tommaso Pobega Bologna Actif 135 / 141 40% 2 28.03.2027 -
Emanuele Schimmenti Potenza Actif 121 / 109 40% 1 24.03.2027 -
Filippo Ranocchia Palermo Actif 132 / 114 40% 1 23.03.2027 -
Ardon Jashari AC Milan Actif 140 / 123 40% 1 22.03.2027 -
Yacine Adli Al-Shabab Actif 146 / 129 40% 1 20.03.2027 -
Caspar Jander Southampton Actif 123 / 118 40% 1 18.03.2027 -
Rody Junior Effaghe Aris Actif 101 / 93 40% 2 17.03.2027 -
David Kalokoh Ajax Actif 118 / 111 40% 1 17.03.2027 -
Amaury Morales Pumas UNAM Actif 107 / 120 40% 1 17.03.2027 -
Prince Ukachukwu Sumgayit Actif 97 / 113 40% 1 11.03.2027 -
Nikolay Zlatev Cherno More Actif 101 / 93 40% 1 11.03.2027 -
Finley McAllister Grimsby Town Actif 99 / 95 40% 1 09.03.2027 -
Ezra Mayers West Ham United Actif 111 / 122 40% 1 09.03.2027 -
Lucas Mbamba Westerlo Actif 83 / 82 40% 1 09.03.2027 -
Abdoulaye Kanté Al-Ettifaq Actif 105 / 134 40% 1 08.03.2027 -
Ignacio Perruzzi San Lorenzo Actif 118 / 114 40% 1 07.03.2027 -
Nikola Simić Partizan Actif 111 / 120 40% 2 04.03.2027 -
Gonçalo Oliveira Benfica Actif 101 / 122 40% 1 02.03.2027 -
Eren Aydın Zira Actif 115 / 93 40% 2 24.02.2027 -
Tio Cipot NK Maribor Actif 122 / 120 40% 1 02.02.2027 -
Alasana Yirajang AS Trencin Actif 114 / 129 40% 1 02.02.2027 -
Axel Pérez NK Domzale Actif 106 / 118 40% 1 01.02.2027 -
David Ozoh Derby County Actif 118 / 139 40% 1 02.08.2026 -